Ariel, Mississippi
Current Conditions -  °F | °C
As of 2:53 PM on Friday 24 Oct 2014 (Local Time) from KMCB Reporting Station
Clear Clear  
Wind Chill: 75°   Ceiling: Unl
Heat Index: 75°   Visibility: 10mi
Dew Point: 40°   Wind: 10mph
Humidity: 28%   Direction: 360°N
Pressure: 30.07"   Gusts: 17mph
Location:  31.1819°N, 90.9008°W
Report Text: KMCB 241953Z AUTO 36009G15KT 10SM CLR 24/04 A3007 RMK AO2 SLP178 T02390044
Loading
Personal Weather Stations






























Interactive Weather Map
Tropical Storm Tracking
New forecast layout! Learn more

10-Day Weather Forecast

Advertisements
Track Severe Weather on mobile